Lakeville, Massachusetts
Current Conditions -  °F | °C
As of 1:52 PM on Friday 28 Nov 2014 (Local Time) from KTAN Reporting Station
Few Clouds Few Clouds  
Wind Chill: 28°   Ceiling: Unl
Heat Index: 37°   Visibility: 10mi
Dew Point: 18°   Wind: 14mph
Humidity: 46%   Direction: 320°NW
Pressure: 30.05"   Gusts: 23mph
Location:  41.85°N, 70.95°W
Report Text: KTAN 281852Z AUTO 32012G20KT 10SM FEW039 03/M08 A3005 RMK AO2 SLP175 T00281078
Loading
Personal Weather Stations






























Interactive Weather Map New forecast layout! Learn more

10-Day Weather Forecast

Advertisements
Track Severe Weather on mobile